createdAt,value
2022-12-12T18:14:18.588Z,100419.53
2022-12-12T18:16:51.768Z,100417.78
2022-12-12T18:19:21.860Z,100414.47
2022-12-12T18:22:00.708Z,100418.38
2022-12-12T18:24:30.744Z,100420.88
2022-12-12T18:27:01.156Z,100431.69
2022-12-12T18:29:30.219Z,100429.25
2022-12-12T18:31:58.647Z,100423.59
2022-12-12T18:34:27.014Z,100419.75
2022-12-12T18:36:55.335Z,100416.66
2022-12-12T18:39:23.947Z,100414.44
2022-12-12T18:41:52.468Z,100418.19
2022-12-12T18:44:21.148Z,100419.72
2022-12-12T18:46:51.426Z,100421.31
2022-12-12T18:49:20.854Z,100425.72
2022-12-12T18:51:50.279Z,100428.41
2022-12-12T18:54:19.305Z,100418.19
2022-12-12T18:56:47.534Z,100429.66
2022-12-12T18:59:17.669Z,100425.19
2022-12-12T19:01:45.959Z,100438.31
2022-12-12T19:04:22.481Z,100439.31
2022-12-12T19:06:53.461Z,100438.97
2022-12-12T19:09:22.110Z,100443.22
2022-12-12T19:11:55.591Z,100441.94
2022-12-12T19:14:45.890Z,100450.41
2022-12-12T19:17:25.311Z,100439.69
2022-12-12T19:19:55.078Z,100441.09
2022-12-12T19:25:12.169Z,100449.56
2022-12-12T19:27:41.100Z,100449.44
2022-12-12T19:30:11.878Z,100446.28
2022-12-12T19:32:40.395Z,100446.50
2022-12-12T19:35:08.886Z,100446.50
2022-12-12T19:37:37.646Z,100448.78
2022-12-12T19:40:07.002Z,100453.59
2022-12-12T19:42:35.315Z,100457.97
2022-12-12T19:45:04.937Z,100457.25
2022-12-12T19:47:35.271Z,100450.78
2022-12-12T19:50:04.545Z,100457.75
2022-12-12T19:52:32.870Z,100456.72
2022-12-12T19:55:01.640Z,100450.28
2022-12-12T19:57:31.471Z,100443.75
2022-12-12T20:00:00.112Z,100447.84
2022-12-12T20:02:28.424Z,100442.03
2022-12-12T20:04:56.991Z,100448.28
2022-12-12T20:07:25.265Z,100452.06
2022-12-12T20:09:53.591Z,100447.63
2022-12-12T20:12:22.284Z,100449.63
2022-12-12T20:14:51.705Z,100440.25
2022-12-12T20:17:22.426Z,100443.31
2022-12-12T20:19:50.614Z,100454.13
2022-12-12T20:22:18.780Z,100446.50
2022-12-12T20:24:47.264Z,100434.22
2022-12-12T20:27:15.575Z,100446.53
2022-12-12T20:29:43.628Z,100453.28
2022-12-12T20:32:13.865Z,100463.00
2022-12-12T20:34:42.164Z,100464.94
2022-12-12T20:37:10.195Z,100464.50
2022-12-12T20:39:39.344Z,100465.63
2022-12-12T20:42:07.194Z,100470.00
2022-12-12T20:44:35.260Z,100470.22
2022-12-12T20:47:05.461Z,100462.94
2022-12-12T20:55:17.530Z,100468.56
2022-12-12T20:57:45.880Z,100469.47
2022-12-12T21:00:14.467Z,100471.22
2022-12-12T21:02:42.956Z,100463.19
2022-12-12T21:05:11.656Z,100462.28
2022-12-12T21:07:40.282Z,100462.81
2022-12-12T21:10:09.040Z,100457.97
2022-12-12T21:12:40.729Z,100464.16
2022-12-12T21:15:10.113Z,100464.34
2022-12-12T21:17:41.767Z,100465.03
2022-12-12T21:20:10.725Z,100461.06
2022-12-12T21:22:39.193Z,100464.09
2022-12-12T21:25:07.810Z,100462.28
2022-12-12T21:27:36.065Z,100468.50
2022-12-12T21:30:05.595Z,100463.41
2022-12-12T21:32:34.399Z,100460.88
2022-12-12T21:35:02.761Z,100446.28
2022-12-12T21:37:34.609Z,100447.75
2022-12-12T21:40:07.410Z,100452.38
2022-12-12T21:42:36.136Z,100459.72
2022-12-12T21:45:04.769Z,100458.22
2022-12-12T21:47:37.654Z,100462.63
2022-12-12T21:50:06.440Z,100459.63
2022-12-12T21:52:36.183Z,100459.13
2022-12-12T21:55:04.572Z,100455.53
2022-12-12T21:57:32.670Z,100465.03
2022-12-12T22:00:01.045Z,100456.94
2022-12-12T22:02:29.185Z,100462.59
2022-12-12T22:04:58.174Z,100467.22
2022-12-12T22:07:26.013Z,100475.16
2022-12-12T22:09:58.781Z,100474.44
2022-12-12T22:12:39.255Z,100471.09
2022-12-12T22:15:07.923Z,100469.44
2022-12-12T22:17:36.104Z,100479.09
2022-12-12T22:20:04.428Z,100471.44
2022-12-12T22:22:33.282Z,100478.59
2022-12-12T22:25:01.550Z,100488.09
2022-12-12T22:27:29.883Z,100498.88
2022-12-12T22:29:58.924Z,100501.16
2022-12-12T22:32:28.809Z,100499.69
2022-12-12T22:34:58.806Z,100505.66
2022-12-12T22:37:27.054Z,100509.38
2022-12-12T22:40:04.739Z,100518.78
2022-12-12T22:42:33.065Z,100511.66
2022-12-12T22:45:01.543Z,100508.06
2022-12-12T22:47:31.043Z,100509.84
2022-12-12T22:50:01.550Z,100510.47
2022-12-12T22:52:31.126Z,100513.66
2022-12-12T22:55:01.645Z,100515.50
2022-12-12T23:00:13.184Z,100513.75
2022-12-12T23:10:52.970Z,100524.59
2022-12-12T23:16:17.946Z,100530.56
2022-12-12T23:18:48.146Z,100522.91
2022-12-12T23:21:19.140Z,100520.97
2022-12-12T23:23:48.621Z,100530.81
2022-12-12T23:26:22.924Z,100534.22
2022-12-12T23:28:51.534Z,100532.44
2022-12-12T23:31:22.809Z,100530.97
2022-12-12T23:33:57.002Z,100527.94
2022-12-12T23:36:26.114Z,100532.13
2022-12-12T23:38:59.597Z,100527.63
2022-12-12T23:41:28.835Z,100526.22
2022-12-12T23:43:57.629Z,100522.03
2022-12-12T23:46:33.922Z,100524.53
2022-12-12T23:49:07.222Z,100518.47
2022-12-12T23:52:08.760Z,100518.94
2022-12-12T23:54:39.289Z,100516.88
2022-12-12T23:57:07.619Z,100521.47
2022-12-12T23:59:36.260Z,100517.00
